createdAt,value
2022-08-02T00:00:58.982Z,12.06
2022-08-02T00:03:26.667Z,11.97
2022-08-02T00:05:54.320Z,11.98
2022-08-02T00:08:23.536Z,11.90
2022-08-02T00:10:51.341Z,11.93
2022-08-02T00:13:18.961Z,12.01
2022-08-02T00:15:46.570Z,12.11
2022-08-02T00:18:14.176Z,12.09
2022-08-02T00:20:41.805Z,12.10
2022-08-02T00:23:09.383Z,12.14
2022-08-02T00:25:55.603Z,12.33
2022-08-02T00:28:27.474Z,12.27
2022-08-02T00:30:56.222Z,12.24
2022-08-02T00:34:26.537Z,12.27
2022-08-02T00:36:11.493Z,12.20
2022-08-02T00:38:39.112Z,12.26
2022-08-02T00:41:13.125Z,12.34
2022-08-02T00:43:40.821Z,12.26
2022-08-02T00:46:08.493Z,12.28
2022-08-02T00:48:36.139Z,12.30
2022-08-02T00:51:09.168Z,12.35
2022-08-02T00:53:36.763Z,12.39
2022-08-02T00:56:04.775Z,12.35
2022-08-02T00:58:33.755Z,12.56
2022-08-02T01:01:02.033Z,12.28
2022-08-02T01:03:29.791Z,12.33
2022-08-02T01:06:10.940Z,12.07
2022-08-02T01:08:39.328Z,12.02
2022-08-02T01:11:06.978Z,11.77
2022-08-02T01:13:35.983Z,11.76
2022-08-02T01:16:11.123Z,11.70
2022-08-02T01:18:42.590Z,11.96
2022-08-02T01:21:44.731Z,11.93
2022-08-02T01:24:25.833Z,11.80
2022-08-02T01:26:56.920Z,11.53
2022-08-02T01:29:30.455Z,11.46
2022-08-02T01:32:03.450Z,11.38
2022-08-02T01:34:35.559Z,11.37
2022-08-02T01:37:06.830Z,11.39
2022-08-02T01:39:35.479Z,11.29
2022-08-02T01:42:04.640Z,11.36
2022-08-02T01:44:36.595Z,11.39
2022-08-02T01:47:06.833Z,11.36
2022-08-02T01:49:35.877Z,11.28
2022-08-02T01:52:22.730Z,11.24
2022-08-02T01:54:52.076Z,11.18
2022-08-02T01:57:21.153Z,11.21
2022-08-02T01:59:50.820Z,11.04
2022-08-02T02:02:19.263Z,11.03
2022-08-02T02:04:48.147Z,10.94
2022-08-02T02:07:17.026Z,10.91
2022-08-02T02:09:47.762Z,10.83
2022-08-02T02:12:19.530Z,10.87
2022-08-02T02:14:51.460Z,10.80
2022-08-02T02:18:11.865Z,10.83
2022-08-02T02:20:12.072Z,10.87
2022-08-02T02:22:39.703Z,10.99
2022-08-02T02:25:08.928Z,11.18
2022-08-02T02:27:40.834Z,11.14
2022-08-02T02:30:13.043Z,11.21
2022-08-02T02:32:42.815Z,11.11
2022-08-02T02:35:11.715Z,10.95
2022-08-02T02:37:39.864Z,10.91
2022-08-02T02:40:09.614Z,10.93
2022-08-02T02:42:37.746Z,10.98
2022-08-02T02:45:11.105Z,10.90
2022-08-02T02:47:41.157Z,10.77
2022-08-02T02:50:11.800Z,10.70
2022-08-02T02:52:41.089Z,10.71
2022-08-02T02:55:09.932Z,10.81
2022-08-02T02:57:38.179Z,10.80
2022-08-02T03:00:08.203Z,10.75
2022-08-02T03:02:36.044Z,10.71
2022-08-02T03:05:04.128Z,10.69
2022-08-02T03:07:34.924Z,10.72
2022-08-02T03:10:04.449Z,10.73
2022-08-02T03:12:32.651Z,10.91
2022-08-02T03:15:00.766Z,11.13
2022-08-02T03:17:38.663Z,11.19
2022-08-02T03:20:10.464Z,11.16
2022-08-02T03:22:39.628Z,11.11
2022-08-02T03:25:08.508Z,11.17
2022-08-02T03:27:36.383Z,11.11
2022-08-02T03:30:05.871Z,11.04
2022-08-02T03:32:33.815Z,10.92
2022-08-02T03:35:01.852Z,10.91
2022-08-02T03:37:30.625Z,11.02
2022-08-02T03:40:00.270Z,11.03
2022-08-02T03:42:28.880Z,11.06
2022-08-02T03:44:57.023Z,10.98
2022-08-02T03:47:25.374Z,10.94
2022-08-02T03:49:53.302Z,10.87
2022-08-02T03:52:21.121Z,10.85
2022-08-02T03:54:48.851Z,10.82
2022-08-02T03:57:17.957Z,10.85
2022-08-02T03:59:46.845Z,10.91
2022-08-02T04:02:14.755Z,11.01
2022-08-02T04:04:42.635Z,11.04
2022-08-02T04:07:10.323Z,11.11
2022-08-02T04:09:39.104Z,11.21
2022-08-02T04:12:07.016Z,11.30
2022-08-02T04:14:36.813Z,11.41
2022-08-02T04:17:07.340Z,11.51
2022-08-02T04:19:39.454Z,11.55
2022-08-02T04:22:09.209Z,11.60
2022-08-02T04:24:40.056Z,11.75
2022-08-02T04:27:19.680Z,11.97
2022-08-02T04:29:58.918Z,12.23
2022-08-02T04:32:26.550Z,12.48
2022-08-02T04:35:18.193Z,12.73
2022-08-02T04:38:05.487Z,12.94
2022-08-02T04:40:31.876Z,13.25
2022-08-02T04:43:00.225Z,13.35
2022-08-02T04:45:31.143Z,13.52
2022-08-02T04:48:06.568Z,13.66
2022-08-02T04:50:34.279Z,13.83
2022-08-02T04:53:01.969Z,13.99
2022-08-02T04:55:29.892Z,14.11
2022-08-02T04:57:58.549Z,14.32
2022-08-02T05:00:27.455Z,14.66
2022-08-02T05:02:56.863Z,14.92
2022-08-02T05:05:24.519Z,15.10
2022-08-02T05:07:52.229Z,15.22
2022-08-02T05:10:19.963Z,15.29
2022-08-02T05:12:47.598Z,15.34
2022-08-02T05:15:17.995Z,15.55
2022-08-02T05:17:47.647Z,15.79
2022-08-02T05:20:17.305Z,16.30
2022-08-02T05:22:45.551Z,16.47
2022-08-02T05:25:13.231Z,16.31
2022-08-02T05:27:40.922Z,16.20
2022-08-02T05:30:09.888Z,16.36
2022-08-02T05:32:44.194Z,18.43
2022-08-02T05:35:11.807Z,19.55
2022-08-02T05:37:42.170Z,20.80
2022-08-02T05:40:13.227Z,22.05
2022-08-02T05:42:41.306Z,22.16
2022-08-02T05:45:09.454Z,23.43
2022-08-02T05:47:37.124Z,23.36
2022-08-02T05:50:05.459Z,23.80
2022-08-02T05:52:42.907Z,24.86
2022-08-02T05:55:14.174Z,24.62
2022-08-02T05:57:45.676Z,24.03
2022-08-02T06:00:15.874Z,24.45
2022-08-02T06:02:59.414Z,24.38
2022-08-02T06:05:28.471Z,25.08
2022-08-02T06:07:59.555Z,24.42
2022-08-02T06:10:29.060Z,24.34
2022-08-02T06:13:04.268Z,24.65
2022-08-02T06:15:32.163Z,25.71
2022-08-02T06:18:00.012Z,25.96
2022-08-02T06:20:28.139Z,25.66
2022-08-02T06:22:57.639Z,25.17
2022-08-02T06:25:47.970Z,26.46
2022-08-02T06:28:14.824Z,26.78
2022-08-02T06:30:42.818Z,25.26
2022-08-02T06:33:10.575Z,26.10
2022-08-02T06:35:46.283Z,25.92
2022-08-02T06:38:20.184Z,27.32
2022-08-02T06:40:58.136Z,27.19
2022-08-02T06:43:32.582Z,27.68
2022-08-02T06:46:37.542Z,27.16
2022-08-02T06:48:47.904Z,27.15
2022-08-02T06:51:15.887Z,27.10
2022-08-02T06:53:45.435Z,26.97
2022-08-02T06:56:13.397Z,26.96
2022-08-02T06:58:41.069Z,26.96
2022-08-02T07:01:09.764Z,26.20
2022-08-02T07:03:38.504Z,26.54
2022-08-02T07:06:08.941Z,25.97
2022-08-02T07:08:38.383Z,24.28
2022-08-02T07:11:08.041Z,22.67
2022-08-02T07:13:39.705Z,22.00
2022-08-02T07:16:08.455Z,21.67
2022-08-02T07:18:36.516Z,21.08
2022-08-02T07:21:06.102Z,21.41
2022-08-02T07:23:36.745Z,21.84
2022-08-02T07:26:05.879Z,21.96
2022-08-02T07:28:34.987Z,21.57
2022-08-02T07:31:03.330Z,21.73
2022-08-02T07:33:37.493Z,21.71
2022-08-02T07:36:09.668Z,21.90
2022-08-02T07:38:44.311Z,22.01
2022-08-02T07:41:13.380Z,22.02
2022-08-02T07:43:42.407Z,21.57
2022-08-02T07:46:09.978Z,21.64
2022-08-02T07:48:37.591Z,22.14
2022-08-02T07:51:05.262Z,22.39
2022-08-02T07:53:51.076Z,22.65
2022-08-02T07:56:19.299Z,22.72
2022-08-02T07:58:48.246Z,22.67
2022-08-02T08:01:15.943Z,22.10
2022-08-02T08:03:43.563Z,21.73
2022-08-02T08:06:11.167Z,21.70
2022-08-02T08:08:38.739Z,21.45
2022-08-02T08:11:06.414Z,21.57
2022-08-02T08:13:34.946Z,21.36
2022-08-02T08:16:04.078Z,21.58
2022-08-02T08:18:31.659Z,21.50
2022-08-02T08:20:59.296Z,21.72
2022-08-02T08:23:28.498Z,22.14
2022-08-02T08:25:56.483Z,22.03
2022-08-02T08:28:24.045Z,22.01
2022-08-02T08:30:51.680Z,22.11
2022-08-02T08:33:20.675Z,22.12
2022-08-02T08:35:48.903Z,22.54
2022-08-02T08:38:17.395Z,22.61
2022-08-02T08:40:45.559Z,22.64
2022-08-02T08:43:14.716Z,22.94
2022-08-02T08:45:42.608Z,22.91
2022-08-02T08:48:13.801Z,23.01
2022-08-02T08:50:47.387Z,23.31
2022-08-02T08:53:15.280Z,23.44
2022-08-02T08:55:44.209Z,23.34
2022-08-02T08:58:12.676Z,23.13
2022-08-02T09:00:41.423Z,23.10
2022-08-02T09:03:10.193Z,23.33
2022-08-02T09:05:38.591Z,23.45
2022-08-02T09:08:07.955Z,23.44
2022-08-02T09:10:38.104Z,23.74
2022-08-02T09:13:38.162Z,23.90
2022-08-02T09:16:11.648Z,23.99
2022-08-02T09:18:43.620Z,24.09
2022-08-02T09:21:11.632Z,24.24
2022-08-02T09:23:41.833Z,24.13
2022-08-02T09:26:11.520Z,24.39
2022-08-02T09:28:41.563Z,24.40
2022-08-02T09:31:10.353Z,24.27
2022-08-02T09:33:39.178Z,23.95
2022-08-02T09:36:08.522Z,24.06
2022-08-02T09:38:37.840Z,24.20
2022-08-02T09:41:08.379Z,24.23
2022-08-02T09:44:03.871Z,24.48
2022-08-02T09:46:30.364Z,24.41
2022-08-02T09:48:59.741Z,24.48
2022-08-02T09:51:28.784Z,24.88
2022-08-02T09:54:07.943Z,24.94
2022-08-02T09:56:46.244Z,24.99
2022-08-02T09:59:14.684Z,25.03
2022-08-02T10:01:50.861Z,25.02
2022-08-02T10:04:28.502Z,25.46
2022-08-02T10:06:56.188Z,24.94
2022-08-02T10:09:23.800Z,25.08
2022-08-02T10:11:53.196Z,25.42
2022-08-02T10:14:21.344Z,25.33
2022-08-02T10:16:48.969Z,25.39
2022-08-02T10:19:17.235Z,26.16
2022-08-02T10:21:47.023Z,26.22
2022-08-02T10:24:16.482Z,26.28
2022-08-02T10:26:45.901Z,26.24
2022-08-02T10:29:17.499Z,26.47
2022-08-02T10:31:48.810Z,26.30
2022-08-02T10:34:20.000Z,26.53
2022-08-02T10:36:49.060Z,25.81
2022-08-02T10:39:16.935Z,26.33
2022-08-02T10:41:48.732Z,25.85
2022-08-02T10:44:25.362Z,25.64
2022-08-02T10:46:53.751Z,25.84
2022-08-02T10:49:40.068Z,25.95
2022-08-02T10:52:10.160Z,25.53
2022-08-02T10:54:40.254Z,25.79
2022-08-02T10:57:20.643Z,25.53
2022-08-02T10:59:50.390Z,25.84
2022-08-02T11:02:36.800Z,26.57
2022-08-02T11:05:10.960Z,26.67
2022-08-02T11:07:40.547Z,26.65
2022-08-02T11:10:40.068Z,26.35
2022-08-02T11:13:13.865Z,27.05
2022-08-02T11:15:55.228Z,26.87
2022-08-02T11:18:23.876Z,26.90
2022-08-02T11:21:21.873Z,26.40
2022-08-02T11:23:49.811Z,26.05
2022-08-02T11:26:45.780Z,25.82
2022-08-02T11:29:15.872Z,25.78
2022-08-02T11:31:46.388Z,26.27
2022-08-02T11:34:28.915Z,26.10
2022-08-02T11:37:02.388Z,25.88
2022-08-02T11:39:29.996Z,25.97
2022-08-02T11:41:58.910Z,26.69
2022-08-02T11:44:27.938Z,26.57
2022-08-02T11:46:58.617Z,26.69
2022-08-02T11:49:26.380Z,26.70
2022-08-02T11:52:00.333Z,27.04
2022-08-02T11:54:30.386Z,26.80
2022-08-02T11:57:14.427Z,26.89
2022-08-02T11:59:47.555Z,26.37
2022-08-02T12:02:17.540Z,26.76
2022-08-02T12:04:53.181Z,26.86
2022-08-02T12:07:34.338Z,27.20
2022-08-02T12:10:04.348Z,26.52
2022-08-02T12:12:31.949Z,26.30
2022-08-02T12:14:59.631Z,26.09
2022-08-02T12:17:47.780Z,26.46
2022-08-02T12:20:17.134Z,26.58
2022-08-02T12:22:45.599Z,26.37
2022-08-02T12:25:34.330Z,26.32
2022-08-02T12:28:17.814Z,26.43
2022-08-02T12:30:53.511Z,26.20
2022-08-02T12:33:23.745Z,26.61
2022-08-02T12:35:51.574Z,26.34
2022-08-02T12:38:19.220Z,26.30
2022-08-02T12:40:47.711Z,26.56
2022-08-02T12:43:20.902Z,26.67
2022-08-02T12:45:50.540Z,26.75
2022-08-02T12:48:18.999Z,26.88
2022-08-02T12:50:47.949Z,26.68
2022-08-02T12:53:17.860Z,26.68
2022-08-02T12:56:01.046Z,26.94
2022-08-02T12:58:31.423Z,26.61
2022-08-02T13:01:00.716Z,26.66
2022-08-02T13:04:11.629Z,26.56
2022-08-02T13:06:43.090Z,26.57
2022-08-02T13:09:13.570Z,26.82
2022-08-02T13:11:43.346Z,27.10
2022-08-02T13:14:11.385Z,27.33
2022-08-02T13:16:40.722Z,27.06
2022-08-02T13:19:08.364Z,26.71
2022-08-02T13:21:40.610Z,26.89
2022-08-02T13:24:39.254Z,26.62
2022-08-02T13:27:12.901Z,25.91
2022-08-02T13:29:40.506Z,26.62
2022-08-02T13:32:08.117Z,26.82
2022-08-02T13:34:35.977Z,26.45
2022-08-02T13:37:05.449Z,26.63
2022-08-02T13:39:33.380Z,26.67
2022-08-02T13:42:01.034Z,26.76
2022-08-02T13:44:28.719Z,27.31
2022-08-02T13:46:56.337Z,27.51
2022-08-02T13:49:50.600Z,27.77
2022-08-02T13:52:14.654Z,27.66
2022-08-02T13:54:42.607Z,27.01
2022-08-02T13:57:10.194Z,27.27
2022-08-02T13:59:56.654Z,27.72
2022-08-02T14:02:25.588Z,28.07
2022-08-02T14:04:53.191Z,28.02
2022-08-02T14:07:22.469Z,27.89
2022-08-02T14:09:50.040Z,27.21
2022-08-02T14:12:17.740Z,27.78
2022-08-02T14:14:45.807Z,28.53
2022-08-02T14:17:13.936Z,29.12
2022-08-02T14:19:41.547Z,29.50
2022-08-02T14:22:10.513Z,28.95
2022-08-02T14:24:42.433Z,29.31
2022-08-02T14:27:10.372Z,29.35
2022-08-02T14:29:38.020Z,28.75
2022-08-02T14:32:06.539Z,28.83
2022-08-02T14:34:34.136Z,28.50
2022-08-02T14:37:01.746Z,28.90
2022-08-02T14:39:43.067Z,27.88
2022-08-02T14:42:18.738Z,27.75
2022-08-02T14:44:46.432Z,27.90
2022-08-02T14:47:14.072Z,27.95
2022-08-02T14:49:43.474Z,28.33
2022-08-02T14:52:14.682Z,28.49
2022-08-02T14:54:43.049Z,27.66
2022-08-02T14:57:11.143Z,27.98
2022-08-02T14:59:42.555Z,28.24
2022-08-02T15:02:13.253Z,28.31
2022-08-02T15:04:42.946Z,27.78
2022-08-02T15:07:11.485Z,27.16
2022-08-02T15:09:39.783Z,27.58
2022-08-02T15:12:09.072Z,28.46
2022-08-02T15:14:36.672Z,28.50
2022-08-02T15:17:06.009Z,28.38
2022-08-02T15:19:58.943Z,27.73
2022-08-02T15:22:21.546Z,27.95
2022-08-02T15:24:49.773Z,28.21
2022-08-02T15:27:17.830Z,28.06
2022-08-02T15:29:46.956Z,27.90
2022-08-02T15:32:18.722Z,28.10
2022-08-02T15:34:46.690Z,28.34
2022-08-02T15:37:14.328Z,28.33
2022-08-02T15:39:41.949Z,28.42
2022-08-02T15:42:09.909Z,28.26
2022-08-02T15:44:39.032Z,28.10
2022-08-02T15:47:07.534Z,28.06
2022-08-02T15:49:40.870Z,27.97
2022-08-02T15:52:09.273Z,28.16
2022-08-02T15:54:36.855Z,28.10
2022-08-02T15:57:04.488Z,28.11
2022-08-02T15:59:32.096Z,28.30
2022-08-02T16:02:00.110Z,28.46
2022-08-02T16:04:27.834Z,27.98
2022-08-02T16:06:56.769Z,27.84
2022-08-02T16:09:24.352Z,27.60
2022-08-02T16:11:51.981Z,27.63
2022-08-02T16:14:19.579Z,27.70
2022-08-02T16:16:47.178Z,27.58
2022-08-02T16:19:47.461Z,27.78
2022-08-02T16:22:03.812Z,27.80
2022-08-02T16:24:31.679Z,28.00
2022-08-02T16:26:59.378Z,27.99
2022-08-02T16:29:27.040Z,27.68
2022-08-02T16:32:00.994Z,27.59
2022-08-02T16:34:44.864Z,27.71
2022-08-02T16:37:17.566Z,27.83
2022-08-02T16:39:45.172Z,28.01
2022-08-02T16:42:12.754Z,27.92
2022-08-02T16:44:53.551Z,27.77
2022-08-02T16:47:42.855Z,27.87
2022-08-02T16:50:11.133Z,27.77
2022-08-02T16:52:40.419Z,27.53
2022-08-02T16:55:11.320Z,27.72
2022-08-02T16:57:43.509Z,27.81
2022-08-02T17:00:15.557Z,27.66
2022-08-02T17:02:43.792Z,27.54
2022-08-02T17:05:14.402Z,27.43
2022-08-02T17:08:15.681Z,27.51
2022-08-02T17:10:33.469Z,27.54
2022-08-02T17:13:11.094Z,27.58
2022-08-02T17:16:17.278Z,27.52
2022-08-02T17:18:27.868Z,27.43
2022-08-02T17:20:56.313Z,27.38
2022-08-02T17:24:04.124Z,27.38
2022-08-02T17:26:13.468Z,27.27
2022-08-02T17:28:50.829Z,27.21
2022-08-02T17:31:29.678Z,27.06
2022-08-02T17:33:58.354Z,26.95
2022-08-02T17:36:26.205Z,26.69
2022-08-02T17:38:55.213Z,26.69
2022-08-02T17:41:37.726Z,26.77
2022-08-02T17:44:08.652Z,26.74
2022-08-02T17:46:37.192Z,26.72
2022-08-02T17:49:17.369Z,26.63
2022-08-02T17:52:15.466Z,26.65
2022-08-02T17:54:34.815Z,26.58
2022-08-02T17:57:02.495Z,26.48
2022-08-02T17:59:41.513Z,26.44
2022-08-02T18:02:11.300Z,26.37
2022-08-02T18:04:39.508Z,26.33
2022-08-02T18:07:09.352Z,26.25
2022-08-02T18:09:43.341Z,26.29
2022-08-02T18:12:14.191Z,26.41
2022-08-02T18:14:48.812Z,26.51
2022-08-02T18:17:16.751Z,26.75
2022-08-02T18:19:57.269Z,27.24
2022-08-02T18:22:31.126Z,26.98
2022-08-02T18:25:00.593Z,26.48
2022-08-02T18:27:39.090Z,25.99
2022-08-02T18:30:08.831Z,25.78
2022-08-02T18:33:55.982Z,25.62
2022-08-02T18:35:29.414Z,25.39
2022-08-02T18:38:03.527Z,25.27
2022-08-02T18:40:32.849Z,25.07
2022-08-02T18:43:03.473Z,25.00
2022-08-02T18:45:36.874Z,24.91
2022-08-02T18:48:22.536Z,24.78
2022-08-02T18:50:53.560Z,24.66
2022-08-02T18:53:28.306Z,24.56
2022-08-02T18:56:19.616Z,24.45
2022-08-02T18:58:59.616Z,24.35
2022-08-02T19:01:33.518Z,24.24
2022-08-02T19:04:03.848Z,24.12
2022-08-02T19:06:31.672Z,23.99
2022-08-02T19:09:05.667Z,23.87
2022-08-02T19:11:40.766Z,23.74
2022-08-02T19:14:09.170Z,23.66
2022-08-02T19:16:38.153Z,23.56
2022-08-02T19:19:06.333Z,23.51
2022-08-02T19:22:16.781Z,23.37
2022-08-02T19:24:22.105Z,23.29
2022-08-02T19:26:52.482Z,23.16
2022-08-02T19:29:25.190Z,23.07
2022-08-02T19:32:08.648Z,22.95
2022-08-02T19:34:58.414Z,22.90
2022-08-02T19:37:26.106Z,22.85
2022-08-02T19:40:05.574Z,22.78
2022-08-02T19:44:21.533Z,22.71
2022-08-02T19:45:49.065Z,22.61
2022-08-02T19:48:14.429Z,22.52
2022-08-02T19:50:44.215Z,22.47
2022-08-02T19:53:17.960Z,22.36
2022-08-02T19:56:01.177Z,22.28
2022-08-02T19:58:32.513Z,22.29
2022-08-02T20:01:00.405Z,22.33
2022-08-02T20:03:50.999Z,22.37
2022-08-02T20:06:17.681Z,22.39
2022-08-02T20:08:53.066Z,22.46
2022-08-02T20:11:24.951Z,22.49
2022-08-02T20:13:54.032Z,22.41
2022-08-02T20:16:28.346Z,22.33
2022-08-02T20:19:01.001Z,22.18
2022-08-02T20:21:35.748Z,22.04
2022-08-02T20:24:05.982Z,21.92
2022-08-02T20:26:35.466Z,21.80
2022-08-02T20:29:05.147Z,21.70
2022-08-02T20:31:33.191Z,21.62
2022-08-02T20:34:00.832Z,21.54
2022-08-02T20:36:28.895Z,21.56
2022-08-02T20:38:56.580Z,21.55
2022-08-02T20:41:37.329Z,21.41
2022-08-02T20:44:15.405Z,21.37
2022-08-02T20:46:44.833Z,21.39
2022-08-02T20:49:21.552Z,21.23
2022-08-02T20:51:50.843Z,21.17
2022-08-02T20:54:21.357Z,21.15
2022-08-02T20:56:50.634Z,21.18
2022-08-02T21:02:07.856Z,21.22
2022-08-02T21:04:41.409Z,21.27
2022-08-02T21:07:11.485Z,21.22
2022-08-02T21:09:53.849Z,21.17
2022-08-02T21:12:30.108Z,21.12
2022-08-02T21:14:59.713Z,21.09
2022-08-02T21:17:42.566Z,21.04
2022-08-02T21:20:16.852Z,20.97
2022-08-02T21:22:44.774Z,20.92
2022-08-02T21:25:15.658Z,20.87
2022-08-02T21:27:52.792Z,20.78
2022-08-02T21:30:24.143Z,20.73
2022-08-02T21:32:54.800Z,20.63
2022-08-02T21:35:25.386Z,20.42
2022-08-02T21:37:57.999Z,20.36
2022-08-02T21:40:26.134Z,20.38
2022-08-02T21:42:54.786Z,20.34
2022-08-02T21:45:24.020Z,20.30
2022-08-02T21:47:56.131Z,20.25
2022-08-02T21:50:23.783Z,20.15
2022-08-02T21:52:53.315Z,20.07
2022-08-02T21:55:23.956Z,20.02
2022-08-02T21:58:09.000Z,19.87
2022-08-02T22:00:37.996Z,19.86
2022-08-02T22:03:22.977Z,19.87
2022-08-02T22:05:50.996Z,19.82
2022-08-02T22:08:18.624Z,19.79
2022-08-02T22:11:04.831Z,19.68
2022-08-02T22:13:47.627Z,19.63
2022-08-02T22:16:18.305Z,19.60
2022-08-02T22:18:51.280Z,19.62
2022-08-02T22:21:20.409Z,19.59
2022-08-02T22:23:51.357Z,19.48
2022-08-02T22:26:19.786Z,19.45
2022-08-02T22:28:51.090Z,19.47
2022-08-02T22:31:40.337Z,19.36
2022-08-02T22:34:26.624Z,19.35
2022-08-02T22:36:56.073Z,19.32
2022-08-02T22:39:23.710Z,19.33
2022-08-02T22:42:06.615Z,19.35
2022-08-02T22:44:38.975Z,19.38
2022-08-02T22:47:14.962Z,19.19
2022-08-02T22:49:51.924Z,19.08
2022-08-02T22:52:22.406Z,19.10
2022-08-02T22:54:50.853Z,19.04
2022-08-02T22:57:30.145Z,19.01
2022-08-02T22:58:56.733Z,21.19
2022-08-02T22:59:59.106Z,19.00
2022-08-02T23:02:28.311Z,18.96
2022-08-02T23:04:57.892Z,18.92
2022-08-02T23:07:25.507Z,18.93
2022-08-02T23:09:53.150Z,18.92
2022-08-02T23:12:21.119Z,18.91
2022-08-02T23:14:50.191Z,18.90
2022-08-02T23:17:35.579Z,18.88
2022-08-02T23:20:06.016Z,18.87
2022-08-02T23:22:34.295Z,18.85
2022-08-02T23:25:02.263Z,18.76
2022-08-02T23:27:30.068Z,18.67
2022-08-02T23:29:57.887Z,18.71
2022-08-02T23:32:26.096Z,18.67
2022-08-02T23:34:53.943Z,18.65
2022-08-02T23:37:23.524Z,18.66
2022-08-02T23:39:51.507Z,18.67
2022-08-02T23:42:19.438Z,18.56
2022-08-02T23:44:47.183Z,18.51
2022-08-02T23:47:16.749Z,18.50
2022-08-02T23:49:44.521Z,18.46
2022-08-02T23:52:12.544Z,18.45
2022-08-02T23:54:41.538Z,18.41
2022-08-02T23:57:20.319Z,18.37
2022-08-02T23:59:49.715Z,18.36
